createdAt,value
2018-08-11T00:00:27.862Z,19.10
2018-08-11T00:02:58.960Z,19.10
2018-08-11T00:05:30.580Z,19.10
2018-08-11T00:08:01.263Z,19.00
2018-08-11T00:10:32.302Z,19.00
2018-08-11T00:13:03.977Z,19.00
2018-08-11T00:15:34.144Z,18.90
2018-08-11T00:18:04.702Z,19.00
2018-08-11T00:20:35.601Z,19.00
2018-08-11T00:23:05.989Z,19.00
2018-08-11T00:25:36.167Z,19.00
2018-08-11T00:28:07.024Z,19.00
2018-08-11T00:30:38.284Z,19.00
2018-08-11T00:33:08.280Z,19.00
2018-08-11T00:35:38.280Z,19.00
2018-08-11T00:38:09.525Z,19.10
2018-08-11T00:40:39.949Z,19.10
2018-08-11T00:43:10.042Z,19.00
2018-08-11T00:45:40.712Z,19.00
2018-08-11T00:48:10.572Z,19.00
2018-08-11T00:50:40.557Z,19.00
2018-08-11T00:53:11.076Z,19.00
2018-08-11T00:55:41.114Z,19.00
2018-08-11T00:58:12.227Z,19.10
2018-08-11T01:00:42.459Z,19.10
2018-08-11T01:03:12.974Z,19.00
2018-08-11T01:05:43.680Z,19.10
2018-08-11T01:08:14.478Z,19.10
2018-08-11T01:10:46.306Z,19.10
2018-08-11T01:13:16.255Z,19.20
2018-08-11T01:15:46.200Z,19.20
2018-08-11T01:18:16.004Z,19.30
2018-08-11T01:20:46.133Z,19.30
2018-08-11T01:23:16.414Z,19.30
2018-08-11T01:25:46.571Z,19.30
2018-08-11T01:28:16.900Z,19.30
2018-08-11T01:30:47.034Z,19.30
2018-08-11T01:33:17.425Z,19.40
2018-08-11T01:35:47.352Z,19.40
2018-08-11T01:38:17.979Z,19.40
2018-08-11T01:40:47.974Z,19.40
2018-08-11T01:43:17.961Z,19.40
2018-08-11T01:45:47.936Z,19.40
2018-08-11T01:48:17.858Z,19.40
2018-08-11T01:50:47.959Z,19.40
2018-08-11T01:53:18.336Z,19.40
2018-08-11T01:55:49.095Z,19.30
2018-08-11T01:58:19.105Z,19.30
2018-08-11T02:00:49.074Z,19.30
2018-08-11T02:03:19.774Z,19.30
2018-08-11T02:05:49.926Z,19.40
2018-08-11T02:08:20.466Z,19.40
2018-08-11T02:10:50.593Z,19.30
2018-08-11T02:13:20.553Z,19.30
2018-08-11T02:15:50.554Z,19.30
2018-08-11T02:18:20.536Z,19.30
2018-08-11T02:20:50.434Z,19.30
2018-08-11T02:23:20.665Z,19.20
2018-08-11T02:25:50.872Z,19.10
2018-08-11T02:28:21.493Z,19.10
2018-08-11T02:34:00.858Z,19.10
2018-08-11T02:36:30.298Z,19.10
2018-08-11T02:39:03.259Z,19.10
2018-08-11T02:41:37.913Z,19.10
2018-08-11T02:44:11.684Z,19.10
2018-08-11T02:46:45.233Z,19.00
2018-08-11T02:49:21.910Z,19.00
2018-08-11T02:51:55.896Z,19.00
2018-08-11T02:54:30.239Z,19.00
2018-08-11T02:57:04.090Z,18.90
2018-08-11T02:59:38.596Z,18.90
2018-08-11T03:02:15.637Z,18.90
2018-08-11T03:04:48.174Z,18.90
2018-08-11T03:07:21.778Z,18.80
2018-08-11T03:09:55.697Z,18.80
2018-08-11T03:12:30.112Z,18.80
2018-08-11T03:15:02.501Z,18.70
2018-08-11T03:17:34.956Z,18.70
2018-08-11T03:20:08.891Z,18.70
2018-08-11T03:22:41.712Z,18.70
2018-08-11T03:25:14.763Z,18.60
2018-08-11T03:27:48.247Z,18.60
2018-08-11T03:30:25.913Z,18.60
2018-08-11T03:33:01.208Z,18.60
2018-08-11T03:35:31.478Z,18.60
2018-08-11T03:38:05.978Z,18.50
2018-08-11T03:40:40.878Z,18.40
2018-08-11T03:43:16.865Z,18.30
2018-08-11T03:45:53.950Z,18.30
2018-08-11T03:48:28.304Z,18.20
2018-08-11T03:51:00.338Z,18.20
2018-08-11T03:53:33.787Z,18.20
2018-08-11T03:56:08.582Z,18.20
2018-08-11T03:58:42.371Z,18.20
2018-08-11T04:01:14.342Z,18.20
2018-08-11T04:03:47.037Z,18.10
2018-08-11T04:06:18.803Z,18.10
2018-08-11T04:08:50.747Z,18.10
2018-08-11T04:11:22.631Z,18.10
2018-08-11T04:13:53.633Z,18.10
2018-08-11T04:16:27.466Z,18.00
2018-08-11T04:18:58.144Z,18.00
2018-08-11T04:21:29.053Z,18.00
2018-08-11T04:24:01.233Z,18.00
2018-08-11T04:26:36.587Z,18.00
2018-08-11T04:29:10.530Z,17.90
2018-08-11T04:31:42.397Z,17.80
2018-08-11T04:34:14.475Z,17.90
2018-08-11T04:36:48.540Z,17.90
2018-08-11T04:39:22.108Z,17.90
2018-08-11T04:41:52.969Z,17.90
2018-08-11T04:44:25.291Z,17.80
2018-08-11T04:46:56.685Z,17.80
2018-08-11T04:49:31.107Z,17.80
2018-08-11T04:52:05.468Z,17.80
2018-08-11T04:54:36.764Z,17.70
2018-08-11T04:57:07.520Z,17.80
2018-08-11T04:59:41.693Z,17.90
2018-08-11T05:02:13.361Z,18.00
2018-08-11T05:04:45.388Z,18.10
2018-08-11T05:07:17.847Z,18.20
2018-08-11T05:09:48.477Z,18.40
2018-08-11T05:12:18.873Z,18.50
2018-08-11T05:14:50.149Z,18.60
2018-08-11T05:17:20.154Z,18.80
2018-08-11T05:19:50.650Z,18.80
2018-08-11T05:22:21.425Z,18.90
2018-08-11T05:24:54.438Z,19.10
2018-08-11T05:27:30.406Z,19.20
2018-08-11T05:30:04.786Z,19.60
2018-08-11T05:32:45.755Z,20.40
2018-08-11T05:35:25.657Z,21.20
2018-08-11T05:37:59.500Z,22.00
2018-08-11T05:43:32.928Z,22.90
2018-08-11T05:46:05.827Z,22.90
2018-08-11T05:48:40.304Z,22.90
2018-08-11T05:51:15.897Z,22.70
2018-08-11T05:53:46.070Z,22.60
2018-08-11T05:56:15.576Z,22.70
2018-08-11T05:58:51.498Z,22.50
2018-08-11T06:01:22.503Z,22.30
2018-08-11T06:04:01.818Z,22.10
2018-08-11T06:06:33.889Z,22.10
2018-08-11T06:09:10.530Z,22.10
2018-08-11T06:11:48.345Z,22.20
2018-08-11T06:14:29.431Z,22.20
2018-08-11T06:17:09.541Z,22.60
2018-08-11T06:19:44.854Z,22.80
2018-08-11T06:22:18.384Z,22.80
2018-08-11T06:24:49.666Z,22.80
2018-08-11T06:27:21.667Z,23.10
2018-08-11T06:30:04.244Z,23.40
2018-08-11T06:32:36.685Z,23.60
2018-08-11T06:35:08.589Z,23.80
2018-08-11T06:37:39.058Z,24.00
2018-08-11T06:40:15.145Z,24.30
2018-08-11T06:42:52.027Z,24.50
2018-08-11T06:45:28.407Z,24.60
2018-08-11T06:48:05.363Z,25.00
2018-08-11T06:50:42.304Z,24.90
2018-08-11T06:53:17.443Z,25.10
2018-08-11T06:55:54.376Z,25.00
2018-08-11T06:58:32.598Z,25.00
2018-08-11T07:01:13.960Z,25.00
2018-08-11T07:45:49.498Z,23.70
2018-08-11T07:48:20.608Z,23.70
2018-08-11T07:50:50.665Z,23.60
2018-08-11T07:53:21.995Z,23.50
2018-08-11T07:55:52.279Z,23.50
2018-08-11T07:58:22.316Z,23.50
2018-08-11T08:00:54.241Z,23.50
2018-08-11T08:03:24.172Z,23.50
2018-08-11T08:05:58.200Z,23.60
2018-08-11T08:08:28.460Z,23.80
2018-08-11T08:11:09.293Z,23.90
2018-08-11T08:13:46.472Z,23.90
2018-08-11T08:16:17.231Z,24.10
2018-08-11T08:18:48.147Z,24.20
2018-08-11T08:21:18.243Z,24.20
2018-08-11T08:23:48.625Z,24.20
2018-08-11T08:26:19.012Z,24.30
2018-08-11T08:28:49.158Z,24.20
2018-08-11T08:31:22.021Z,24.20
2018-08-11T08:33:53.061Z,24.20
2018-08-11T08:36:23.100Z,24.10
2018-08-11T08:38:53.167Z,24.20
2018-08-11T08:41:23.566Z,24.20
2018-08-11T08:43:53.673Z,24.20
2018-08-11T08:46:23.725Z,24.20
2018-08-11T08:48:54.115Z,24.20
2018-08-11T08:51:24.309Z,24.20
2018-08-11T08:53:54.519Z,24.30
2018-08-11T08:56:24.467Z,24.40
2018-08-11T08:58:54.399Z,24.40
2018-08-11T09:01:26.952Z,24.30
2018-08-11T09:03:57.289Z,24.20
2018-08-11T09:06:27.775Z,24.10
2018-08-11T09:08:57.685Z,24.10
2018-08-11T09:11:28.030Z,24.20
2018-08-11T09:14:00.679Z,24.10
2018-08-11T09:16:36.843Z,24.00
2018-08-11T09:19:07.032Z,23.70
2018-08-11T09:21:43.249Z,23.60
2018-08-11T09:24:22.665Z,23.70
2018-08-11T09:26:56.726Z,23.70
2018-08-11T09:29:27.193Z,23.90
2018-08-11T09:31:57.491Z,23.90
2018-08-11T09:34:27.511Z,24.00
2018-08-11T09:36:57.799Z,24.10
2018-08-11T09:39:27.993Z,23.90
2018-08-11T09:42:01.673Z,23.70
2018-08-11T09:44:32.770Z,23.70
2018-08-11T09:47:04.284Z,23.70
2018-08-11T09:49:35.486Z,23.80
2018-08-11T09:52:09.496Z,23.90
2018-08-11T09:54:40.328Z,23.90
2018-08-11T09:57:11.497Z,24.00
2018-08-11T09:59:41.609Z,24.20
2018-08-11T10:02:21.472Z,24.40
2018-08-11T10:04:52.778Z,24.60
2018-08-11T10:07:23.037Z,24.70
2018-08-11T10:09:52.985Z,24.90
2018-08-11T10:12:22.879Z,25.00
2018-08-11T10:14:55.753Z,25.00
2018-08-11T10:17:25.725Z,25.20
2018-08-11T10:19:56.346Z,25.30
2018-08-11T10:22:27.809Z,25.50
2018-08-11T10:24:58.644Z,25.60
2018-08-11T10:27:30.650Z,25.60
2018-08-11T10:30:06.010Z,25.50
2018-08-11T10:32:39.409Z,25.40
2018-08-11T10:35:19.770Z,25.50
2018-08-11T10:37:52.479Z,25.60
2018-08-11T10:40:22.949Z,25.70
2018-08-11T10:45:45.113Z,26.00
2018-08-11T10:48:17.859Z,26.10
2018-08-11T10:50:54.628Z,26.10
2018-08-11T10:53:28.298Z,25.70
2018-08-11T10:56:02.781Z,25.50
2018-08-11T10:58:38.841Z,25.40
2018-08-11T11:01:18.083Z,25.40
2018-08-11T11:03:59.012Z,25.30
2018-08-11T11:06:33.308Z,25.40
2018-08-11T11:09:05.550Z,25.60
2018-08-11T11:11:42.457Z,25.70
2018-08-11T11:14:17.385Z,25.90
2018-08-11T11:16:57.751Z,26.00
2018-08-11T11:19:36.385Z,26.00
2018-08-11T11:22:07.640Z,26.10
2018-08-11T11:24:39.112Z,26.30
2018-08-11T11:27:08.752Z,26.40
2018-08-11T11:29:41.580Z,26.40
2018-08-11T11:32:11.950Z,26.30
2018-08-11T11:34:44.464Z,26.40
2018-08-11T11:37:16.143Z,26.60
2018-08-11T11:39:46.185Z,26.70
2018-08-11T11:42:15.700Z,26.70
2018-08-11T11:44:45.191Z,26.70
2018-08-11T11:47:16.853Z,26.80
2018-08-11T11:49:47.957Z,26.80
2018-08-11T11:52:19.296Z,26.90
2018-08-11T11:54:52.541Z,26.50
2018-08-11T11:57:31.281Z,26.50
2018-08-11T12:00:11.691Z,26.60
2018-08-11T12:02:51.237Z,26.80
2018-08-11T12:05:29.540Z,26.90
2018-08-11T12:08:07.587Z,26.60
2018-08-11T12:10:43.245Z,26.40
2018-08-11T12:13:29.322Z,26.40
2018-08-11T12:16:03.864Z,26.20
2018-08-11T12:18:46.138Z,26.00
2018-08-11T12:21:21.655Z,26.10
2018-08-11T12:24:03.058Z,26.10
2018-08-11T12:26:40.132Z,26.10
2018-08-11T12:29:20.820Z,26.10
2018-08-11T12:31:59.692Z,26.00
2018-08-11T12:34:38.485Z,26.10
2018-08-11T12:37:17.931Z,26.30
2018-08-11T12:39:54.855Z,26.40
2018-08-11T12:42:26.597Z,26.30
2018-08-11T12:45:08.791Z,26.20
2018-08-11T12:47:51.380Z,26.20
2018-08-11T12:50:26.118Z,26.20
2018-08-11T12:53:06.113Z,26.30
2018-08-11T12:55:39.117Z,26.30
2018-08-11T12:58:15.887Z,26.10
2018-08-11T13:00:56.966Z,26.20
2018-08-11T13:03:33.221Z,26.30
2018-08-11T13:06:08.809Z,26.50
2018-08-11T13:08:48.337Z,26.60
2018-08-11T13:11:31.155Z,26.40
2018-08-11T13:14:12.080Z,26.30
2018-08-11T13:16:50.721Z,26.30
2018-08-11T13:19:29.535Z,26.20
2018-08-11T13:22:01.846Z,26.10
2018-08-11T13:24:37.009Z,26.10
2018-08-11T13:27:15.204Z,26.20
2018-08-11T13:32:26.969Z,26.20
2018-08-11T13:35:02.450Z,26.30
2018-08-11T13:37:41.678Z,26.40
2018-08-11T13:40:21.268Z,26.40
2018-08-11T13:42:59.041Z,26.40
2018-08-11T13:45:33.204Z,26.40
2018-08-11T13:48:05.474Z,26.40
2018-08-11T13:50:41.292Z,26.30
2018-08-11T13:53:16.761Z,26.30
2018-08-11T13:55:49.627Z,26.30
2018-08-11T13:58:26.885Z,26.30
2018-08-11T14:01:05.135Z,26.40
2018-08-11T14:03:40.291Z,26.40
2018-08-11T14:06:16.582Z,26.30
2018-08-11T14:08:51.964Z,26.30
2018-08-11T14:11:27.340Z,26.20
2018-08-11T14:14:00.156Z,26.10
2018-08-11T14:16:37.961Z,26.10
2018-08-11T14:19:14.402Z,26.10
2018-08-11T14:21:51.839Z,26.20
2018-08-11T14:24:33.419Z,26.20
2018-08-11T14:27:08.952Z,26.30
2018-08-11T14:29:42.605Z,26.30
2018-08-11T14:32:14.643Z,26.30
2018-08-11T14:34:50.191Z,26.40
2018-08-11T14:37:27.897Z,26.50
2018-08-11T14:40:07.860Z,26.50
2018-08-11T14:42:48.258Z,26.50
2018-08-11T14:45:22.130Z,26.40
2018-08-11T14:47:56.950Z,26.30
2018-08-11T14:50:32.904Z,26.20
2018-08-11T14:53:06.103Z,26.00
2018-08-11T14:55:39.855Z,25.80
2018-08-11T14:58:14.177Z,25.70
2018-08-11T15:00:48.853Z,25.70
2018-08-11T15:03:22.823Z,25.60
2018-08-11T15:05:56.821Z,25.70
2018-08-11T15:08:30.078Z,25.60
2018-08-11T15:11:05.000Z,25.60
2018-08-11T15:13:41.989Z,25.50
2018-08-11T15:16:15.590Z,25.70
2018-08-11T15:18:48.998Z,25.70
2018-08-11T15:21:25.306Z,25.90
2018-08-11T15:23:58.330Z,25.80
2018-08-11T15:26:37.130Z,25.80
2018-08-11T15:29:11.893Z,25.70
2018-08-11T15:31:52.136Z,25.60
2018-08-11T15:34:32.675Z,25.60
2018-08-11T15:37:09.347Z,25.70
2018-08-11T15:39:47.587Z,25.70
2018-08-11T18:54:25.464Z,23.30
2018-08-11T18:56:55.642Z,23.30
2018-08-11T18:59:27.475Z,23.10
2018-08-11T19:01:58.564Z,23.10
2018-08-11T19:04:29.067Z,23.10
2018-08-11T19:06:59.091Z,23.00
2018-08-11T19:09:31.607Z,23.00
2018-08-11T19:12:03.232Z,22.90
2018-08-11T19:14:33.675Z,22.90
2018-08-11T19:17:04.176Z,22.90
2018-08-11T19:19:34.635Z,22.90
2018-08-11T19:22:04.762Z,22.80
2018-08-11T19:24:34.679Z,22.80
2018-08-11T19:27:04.563Z,22.70
2018-08-11T19:29:34.649Z,22.60
2018-08-11T19:32:05.769Z,22.60
2018-08-11T19:34:35.668Z,22.60
2018-08-11T19:37:06.022Z,22.60
2018-08-11T19:39:36.283Z,22.40
2018-08-11T19:42:07.127Z,22.40
2018-08-11T19:44:36.868Z,22.30
2018-08-11T19:47:06.677Z,22.30
2018-08-11T19:49:36.591Z,22.20
2018-08-11T19:52:06.823Z,22.20
2018-08-11T19:54:36.803Z,22.20
2018-08-11T19:57:06.766Z,22.10
2018-08-11T19:59:36.630Z,22.00
2018-08-11T20:02:06.645Z,22.00
2018-08-11T20:04:37.296Z,21.90
2018-08-11T20:07:07.327Z,21.90
2018-08-11T20:09:37.157Z,21.80
2018-08-11T20:12:06.947Z,21.70
2018-08-11T20:14:36.997Z,21.60
2018-08-11T20:17:07.359Z,21.50
2018-08-11T20:19:37.184Z,21.50
2018-08-11T20:22:13.037Z,21.40
2018-08-11T20:24:43.076Z,21.40
2018-08-11T20:27:13.321Z,21.40
2018-08-11T20:29:43.206Z,21.30
2018-08-11T20:32:14.237Z,21.20
2018-08-11T20:34:44.590Z,21.10
2018-08-11T20:37:14.447Z,21.00
2018-08-11T20:39:44.312Z,21.00
2018-08-11T20:42:14.124Z,21.00
2018-08-11T20:44:43.939Z,21.00
2018-08-11T20:47:13.692Z,21.00
2018-08-11T20:49:43.426Z,20.90
2018-08-11T20:52:13.163Z,20.90
2018-08-11T20:54:44.035Z,20.90
2018-08-11T20:57:13.943Z,20.90
2018-08-11T20:59:43.948Z,20.80
2018-08-11T21:02:14.728Z,20.80
2018-08-11T21:04:45.586Z,20.70
2018-08-11T21:07:15.887Z,20.50
2018-08-11T21:09:46.031Z,20.40
2018-08-11T21:12:16.039Z,20.30
2018-08-11T21:14:46.841Z,20.20
2018-08-11T21:17:16.795Z,20.20
2018-08-11T21:19:46.928Z,20.10
2018-08-11T21:22:16.802Z,20.10
2018-08-11T21:24:46.949Z,20.00
2018-08-11T21:27:17.667Z,19.90
2018-08-11T21:29:47.389Z,19.80
2018-08-11T21:32:17.803Z,19.80
2018-08-11T21:34:49.106Z,19.80
2018-08-11T21:37:18.853Z,19.70
2018-08-11T21:39:48.774Z,19.70
2018-08-11T21:42:19.043Z,19.70
2018-08-11T21:44:48.807Z,19.70
2018-08-11T21:47:18.580Z,19.60
2018-08-11T21:49:48.327Z,19.70
2018-08-11T21:52:18.232Z,19.60
2018-08-11T21:54:48.668Z,19.70
2018-08-11T21:57:18.589Z,19.70
2018-08-11T21:59:48.443Z,19.70
2018-08-11T22:02:18.293Z,19.60
2018-08-11T22:04:48.207Z,19.40
2018-08-11T22:07:18.395Z,19.40
2018-08-11T22:09:48.875Z,19.40
2018-08-11T22:12:19.504Z,19.30
2018-08-11T22:14:49.236Z,19.30
2018-08-11T22:17:18.976Z,19.30
2018-08-11T22:19:48.665Z,19.20
2018-08-11T22:22:18.444Z,19.20
2018-08-11T22:24:48.245Z,19.10
2018-08-11T22:27:18.148Z,19.10
2018-08-11T22:29:48.272Z,19.00
2018-08-11T22:32:18.085Z,19.00
2018-08-11T22:34:47.851Z,18.90
2018-08-11T22:37:17.702Z,18.90
2018-08-11T22:39:47.410Z,18.90
2018-08-11T22:42:17.272Z,18.80
2018-08-11T22:44:47.677Z,18.80
2018-08-11T22:47:17.621Z,18.80
2018-08-11T22:49:47.374Z,18.70
2018-08-11T22:52:17.459Z,18.70
2018-08-11T22:54:47.305Z,18.70
2018-08-11T22:57:16.983Z,18.60
2018-08-11T22:59:46.654Z,18.60
2018-08-11T23:02:16.575Z,18.50
2018-08-11T23:04:46.584Z,18.40
2018-08-11T23:07:16.536Z,18.40
2018-08-11T23:09:46.465Z,18.40
2018-08-11T23:12:16.333Z,18.50
2018-08-11T23:14:46.138Z,18.40
2018-08-11T23:17:16.073Z,18.30
2018-08-11T23:19:45.689Z,18.20
2018-08-11T23:22:15.269Z,18.20
2018-08-11T23:24:45.058Z,18.10
2018-08-11T23:27:14.901Z,18.10
2018-08-11T23:29:45.293Z,18.00
2018-08-11T23:32:15.229Z,18.00
2018-08-11T23:34:44.984Z,17.90
2018-08-11T23:37:14.711Z,17.90
2018-08-11T23:39:45.310Z,17.90
2018-08-11T23:42:15.224Z,17.90
2018-08-11T23:44:45.110Z,17.90
2018-08-11T23:47:14.915Z,17.90
2018-08-11T23:49:44.720Z,17.90
2018-08-11T23:52:14.480Z,17.80
2018-08-11T23:54:44.208Z,17.80
2018-08-11T23:57:14.368Z,17.80
2018-08-11T23:59:44.840Z,17.80
